createdAt,value
2023-01-04T00:01:22.991Z,99286.81
2023-01-04T00:03:50.418Z,99289.31
2023-01-04T00:06:18.029Z,99279.75
2023-01-04T00:08:44.742Z,99278.78
2023-01-04T00:11:21.433Z,99273.00
2023-01-04T00:13:50.090Z,99267.81
2023-01-04T00:16:20.748Z,99267.69
2023-01-04T00:18:48.043Z,99257.16
2023-01-04T00:21:17.368Z,99255.97
2023-01-04T00:23:48.409Z,99237.66
2023-01-04T00:26:21.922Z,99236.81
2023-01-04T00:28:54.599Z,99231.41
2023-01-04T00:31:22.770Z,99216.50
2023-01-04T00:33:50.474Z,99216.28
2023-01-04T00:36:17.041Z,99221.69
2023-01-04T00:38:43.586Z,99208.44
2023-01-04T00:41:34.421Z,99213.69
2023-01-04T00:43:59.759Z,99200.72
2023-01-04T00:46:26.331Z,99204.63
2023-01-04T00:48:56.746Z,99199.13
2023-01-04T00:51:28.829Z,99197.97
2023-01-04T00:53:55.611Z,99188.81
2023-01-04T00:56:22.535Z,99193.13
2023-01-04T00:58:48.987Z,99187.22
2023-01-04T01:01:15.497Z,99176.22
2023-01-04T01:03:44.335Z,99176.59
2023-01-04T01:06:12.174Z,99169.81
2023-01-04T01:08:38.700Z,99175.38
2023-01-04T01:11:08.591Z,99171.66
2023-01-04T01:13:36.391Z,99172.91
2023-01-04T01:16:12.991Z,99176.31
2023-01-04T01:18:40.753Z,99170.34
2023-01-04T01:21:26.975Z,99167.56
2023-01-04T01:23:55.574Z,99167.88
2023-01-04T01:26:24.616Z,99152.19
2023-01-04T01:28:51.877Z,99156.28
2023-01-04T01:31:25.372Z,99145.75
2023-01-04T01:33:55.712Z,99144.06
2023-01-04T01:36:24.748Z,99137.50
2023-01-04T01:38:51.480Z,99138.44
2023-01-04T01:41:33.589Z,99140.13
2023-01-04T01:44:26.511Z,99130.16
2023-01-04T01:46:55.162Z,99132.97
2023-01-04T01:49:32.541Z,99132.34
2023-01-04T01:52:11.433Z,99115.38
2023-01-04T01:54:47.045Z,99115.88
2023-01-04T01:57:26.913Z,99107.75
2023-01-04T01:59:59.541Z,99110.06
2023-01-04T02:02:26.217Z,99108.25
2023-01-04T02:04:54.557Z,99102.88
2023-01-04T02:07:26.526Z,99108.25
2023-01-04T02:09:55.629Z,99102.72
2023-01-04T02:12:22.300Z,99100.81
2023-01-04T02:14:51.491Z,99088.84
2023-01-04T02:17:39.111Z,99084.38
2023-01-04T02:20:35.195Z,99091.34
2023-01-04T02:23:46.845Z,99082.59
2023-01-04T02:26:43.781Z,99082.94
2023-01-04T02:29:57.431Z,99081.41
2023-01-04T02:32:51.979Z,99069.72
2023-01-04T02:35:53.317Z,99061.84
2023-01-04T02:38:36.343Z,99045.44
2023-01-04T02:41:34.010Z,99040.63
2023-01-04T02:44:23.693Z,99039.63
2023-01-04T02:47:49.634Z,99033.25
2023-01-04T02:50:30.876Z,99037.44
2023-01-04T02:53:02.064Z,99027.25
2023-01-04T02:55:46.996Z,99021.50
2023-01-04T02:58:59.946Z,99023.53
2023-01-04T03:02:09.989Z,99011.72
2023-01-04T03:05:18.773Z,99006.00
2023-01-04T03:08:30.222Z,98998.50
2023-01-04T03:11:29.996Z,99006.97
2023-01-04T03:14:32.014Z,98988.13
2023-01-04T03:17:08.694Z,98984.66
2023-01-04T03:19:54.801Z,98972.19
2023-01-04T03:23:00.989Z,98971.50
2023-01-04T03:25:58.824Z,98964.22
2023-01-04T03:28:49.720Z,98962.31
2023-01-04T03:31:45.634Z,98947.78
2023-01-04T03:34:31.389Z,98945.81
2023-01-04T03:37:39.692Z,98946.44
2023-01-04T03:40:49.587Z,98945.50
2023-01-04T03:43:41.891Z,98941.50
2023-01-04T03:46:58.080Z,98936.94
2023-01-04T03:49:33.577Z,98930.59
2023-01-04T03:52:05.863Z,98928.56
2023-01-04T03:54:39.847Z,98922.41
2023-01-04T03:57:09.096Z,98913.66
2023-01-04T03:59:48.052Z,98920.44
2023-01-04T04:02:19.247Z,98911.63
2023-01-04T04:05:05.037Z,98913.31
2023-01-04T04:07:50.409Z,98908.53
2023-01-04T04:10:17.021Z,98909.63
2023-01-04T04:12:43.510Z,98904.84
2023-01-04T04:15:10.388Z,98903.69
2023-01-04T04:17:36.861Z,98898.63
2023-01-04T04:20:03.997Z,98899.47
2023-01-04T04:22:30.429Z,98890.59
2023-01-04T04:24:56.900Z,98888.97
2023-01-04T04:27:23.368Z,98899.28
2023-01-04T04:29:49.912Z,98898.25
2023-01-04T04:32:16.485Z,98888.38
2023-01-04T04:34:42.980Z,98896.38
2023-01-04T04:37:09.566Z,98892.69
2023-01-04T04:39:36.062Z,98885.50
2023-01-04T04:42:02.781Z,98888.81
2023-01-04T04:44:29.231Z,98884.66
2023-01-04T04:46:55.692Z,98885.59
2023-01-04T04:49:22.249Z,98882.09
2023-01-04T04:51:48.793Z,98878.34
2023-01-04T04:54:20.075Z,98878.94
2023-01-04T04:56:48.321Z,98868.16
2023-01-04T04:59:15.751Z,98865.84
2023-01-04T05:01:42.385Z,98860.84
2023-01-04T05:04:09.373Z,98842.72
2023-01-04T05:06:35.879Z,98845.25
2023-01-04T05:09:02.422Z,98846.28
2023-01-04T05:11:47.693Z,98842.88
2023-01-04T05:14:14.158Z,98840.78
2023-01-04T05:16:40.704Z,98828.78
2023-01-04T05:19:07.231Z,98829.13
2023-01-04T05:21:33.732Z,98842.94
2023-01-04T05:24:00.207Z,98838.47
2023-01-04T05:26:26.739Z,98830.22
2023-01-04T05:28:54.124Z,98837.00
2023-01-04T05:31:21.839Z,98841.03
2023-01-04T05:33:48.490Z,98826.91
2023-01-04T05:36:15.066Z,98833.63
2023-01-04T05:38:41.602Z,98818.50
2023-01-04T05:41:28.489Z,98820.19
2023-01-04T05:43:55.333Z,98808.78
2023-01-04T05:46:22.311Z,98808.38
2023-01-04T05:48:48.826Z,98812.25
2023-01-04T05:51:15.339Z,98812.69
2023-01-04T05:53:41.886Z,98804.75
2023-01-04T05:56:08.542Z,98796.97
2023-01-04T05:58:35.086Z,98796.72
2023-01-04T06:01:01.572Z,98797.25
2023-01-04T06:03:28.223Z,98794.78
2023-01-04T06:05:54.889Z,98779.59
2023-01-04T06:08:21.416Z,98788.25
2023-01-04T06:10:54.347Z,98792.03
2023-01-04T06:13:20.971Z,98773.78
2023-01-04T06:15:47.523Z,98779.56
2023-01-04T06:18:14.201Z,98769.91
2023-01-04T06:20:43.389Z,98768.03
2023-01-04T06:23:09.919Z,98780.13
2023-01-04T06:25:37.403Z,98776.06
2023-01-04T06:28:03.929Z,98771.09
2023-01-04T06:30:30.481Z,98776.50
2023-01-04T06:32:57.008Z,98773.25
2023-01-04T06:35:23.484Z,98769.06
2023-01-04T06:37:49.941Z,98775.91
2023-01-04T06:40:16.456Z,98773.28
2023-01-04T06:42:45.809Z,98764.53
2023-01-04T06:45:14.818Z,98759.13
2023-01-04T06:47:41.695Z,98762.03
2023-01-04T06:50:09.791Z,98768.56
2023-01-04T06:52:36.339Z,98773.56
2023-01-04T06:55:03.069Z,98765.09
2023-01-04T06:57:30.702Z,98768.16
2023-01-04T06:59:57.226Z,98774.69
2023-01-04T07:02:23.852Z,98776.47
2023-01-04T07:04:50.501Z,98766.91
2023-01-04T07:07:17.089Z,98759.97
2023-01-04T07:09:43.609Z,98748.09
2023-01-04T07:12:10.123Z,98744.38
2023-01-04T07:14:36.610Z,98751.97
2023-01-04T07:17:03.118Z,98752.47
2023-01-04T07:19:29.648Z,98744.44
2023-01-04T07:21:58.564Z,98739.03
2023-01-04T07:24:30.005Z,98755.78
2023-01-04T07:26:59.306Z,98749.47
2023-01-04T07:29:26.244Z,98740.97
2023-01-04T07:31:53.584Z,98737.41
2023-01-04T07:34:24.497Z,98746.69
2023-01-04T07:36:51.540Z,98730.63
2023-01-04T07:39:19.611Z,98739.84
2023-01-04T07:41:47.102Z,98741.38
2023-01-04T07:44:14.372Z,98735.03
2023-01-04T07:46:42.716Z,98732.56
2023-01-04T07:49:17.908Z,98736.28
2023-01-04T07:51:47.229Z,98727.22
2023-01-04T07:54:16.521Z,98736.56
2023-01-04T07:56:44.429Z,98730.69
2023-01-04T07:59:12.844Z,98737.66
2023-01-04T08:01:40.081Z,98734.25
2023-01-04T08:04:09.682Z,98740.06
2023-01-04T08:06:37.637Z,98734.81
2023-01-04T08:09:06.287Z,98737.28
2023-01-04T08:11:34.562Z,98737.38
2023-01-04T08:14:01.298Z,98732.19
2023-01-04T08:16:33.376Z,98732.66
2023-01-04T08:19:04.764Z,98735.44
2023-01-04T08:21:34.797Z,98741.16
2023-01-04T08:24:02.149Z,98736.44
2023-01-04T08:26:29.035Z,98747.69
2023-01-04T08:28:56.724Z,98739.84
2023-01-04T08:31:27.946Z,98743.56
2023-01-04T08:33:57.272Z,98737.47
2023-01-04T08:36:29.830Z,98726.69
2023-01-04T08:39:04.855Z,98736.44
2023-01-04T08:42:02.084Z,98732.03
2023-01-04T08:44:29.591Z,98726.63
2023-01-04T08:46:56.621Z,98723.66
2023-01-04T08:49:24.650Z,98733.53
2023-01-04T08:51:51.501Z,98729.22
2023-01-04T08:54:18.335Z,98713.38
2023-01-04T08:56:44.992Z,98719.56
2023-01-04T08:59:13.654Z,98718.16
2023-01-04T09:01:41.295Z,98711.69
2023-01-04T09:04:08.664Z,98716.59
2023-01-04T09:06:37.561Z,98706.38
2023-01-04T09:09:04.282Z,98691.19
2023-01-04T09:11:30.803Z,98700.41
2023-01-04T09:14:06.815Z,98700.72
2023-01-04T09:16:36.853Z,98696.41
2023-01-04T09:19:03.861Z,98703.09
2023-01-04T09:21:30.489Z,98706.56
2023-01-04T09:23:58.712Z,98695.94
2023-01-04T09:26:25.592Z,98694.41
2023-01-04T09:28:55.150Z,98697.88
2023-01-04T09:31:26.288Z,98691.88
2023-01-04T09:36:41.557Z,98699.38
2023-01-04T09:39:13.176Z,98697.91
2023-01-04T09:41:58.664Z,98701.09
2023-01-04T09:45:12.006Z,98702.63
2023-01-04T09:47:51.897Z,98708.25
2023-01-04T09:50:46.519Z,98706.56
2023-01-04T09:53:42.909Z,98697.91
2023-01-04T09:56:33.903Z,98703.84
2023-01-04T09:59:05.565Z,98702.81
2023-01-04T10:01:49.680Z,98700.19
2023-01-04T10:04:28.870Z,98692.59
2023-01-04T10:07:01.018Z,98680.31
2023-01-04T10:09:31.238Z,98687.53
2023-01-04T10:12:59.498Z,98691.94
2023-01-04T10:16:06.362Z,98674.84
2023-01-04T10:19:36.636Z,98666.78
2023-01-04T10:21:53.976Z,98662.88
2023-01-04T10:24:59.412Z,98661.94
2023-01-04T10:27:53.373Z,98669.63
2023-01-04T10:31:01.848Z,98659.69
2023-01-04T10:34:00.119Z,98648.50
2023-01-04T10:36:33.973Z,98653.09
2023-01-04T10:39:12.772Z,98639.44
2023-01-04T10:41:57.563Z,98639.03
2023-01-04T10:44:37.543Z,98638.50
2023-01-04T10:47:32.930Z,98641.78
2023-01-04T10:50:11.252Z,98636.59
2023-01-04T10:52:51.368Z,98629.88
2023-01-04T10:56:26.475Z,98617.78
2023-01-04T10:58:51.778Z,98621.59
2023-01-04T11:01:32.333Z,98622.94
2023-01-04T11:04:19.981Z,98619.63
2023-01-04T11:06:56.943Z,98627.03
2023-01-04T11:09:49.996Z,98615.03
2023-01-04T11:12:21.346Z,98618.78
2023-01-04T11:14:51.106Z,98626.00
2023-01-04T11:17:21.329Z,98625.63
2023-01-04T11:19:48.781Z,98624.31
2023-01-04T11:22:36.139Z,98613.13
2023-01-04T11:28:16.030Z,98598.47
2023-01-04T11:30:59.350Z,98599.97
2023-01-04T11:33:26.231Z,98598.28
2023-01-04T11:35:58.708Z,98595.38
2023-01-04T11:38:29.053Z,98592.66
2023-01-04T11:41:16.015Z,98595.19
2023-01-04T11:43:58.504Z,98588.06
2023-01-04T11:46:27.535Z,98582.19
2023-01-04T11:48:54.331Z,98575.72
2023-01-04T11:51:25.291Z,98578.03
2023-01-04T11:54:02.108Z,98581.69
2023-01-04T11:56:37.022Z,98576.13
2023-01-04T11:59:24.477Z,98574.56
2023-01-04T12:02:11.946Z,98568.56
2023-01-04T12:04:38.555Z,98559.94
2023-01-04T12:07:35.367Z,98556.94
2023-01-04T12:10:22.026Z,98551.47
2023-01-04T12:12:48.618Z,98534.66
2023-01-04T12:15:30.773Z,98540.72
2023-01-04T12:18:35.627Z,98529.25
2023-01-04T12:21:03.768Z,98520.41
2023-01-04T12:23:31.136Z,98514.47
2023-01-04T12:25:58.153Z,98522.22
2023-01-04T12:28:47.109Z,98522.88
2023-01-04T12:31:20.137Z,98519.94
2023-01-04T12:34:23.329Z,98512.41
2023-01-04T12:37:05.584Z,98522.72
2023-01-04T12:39:47.470Z,98500.81
2023-01-04T12:42:24.438Z,98511.25
2023-01-04T12:44:51.947Z,98499.53
2023-01-04T12:47:37.222Z,98501.41
2023-01-04T12:50:15.677Z,98481.75
2023-01-04T12:55:43.790Z,98495.03
2023-01-04T12:58:58.134Z,98494.06
2023-01-04T13:01:28.700Z,98496.19
2023-01-04T13:04:29.273Z,98490.72
2023-01-04T13:07:10.032Z,98488.19
2023-01-04T13:09:48.565Z,98487.13
2023-01-04T13:12:40.487Z,98484.94
2023-01-04T13:15:21.650Z,98479.16
2023-01-04T13:17:49.205Z,98475.38
2023-01-04T13:20:22.335Z,98476.88
2023-01-04T13:22:59.553Z,98476.63
2023-01-04T13:25:26.731Z,98472.97
2023-01-04T13:27:58.570Z,98467.38
2023-01-04T13:30:43.159Z,98473.28
2023-01-04T13:33:28.351Z,98460.66
2023-01-04T13:36:04.218Z,98464.22
2023-01-04T13:38:34.224Z,98464.13
2023-01-04T13:41:00.819Z,98457.16
2023-01-04T13:43:51.500Z,98459.06
2023-01-04T13:46:27.207Z,98461.91
2023-01-04T13:49:01.825Z,98455.91
2023-01-04T13:51:37.841Z,98466.75
2023-01-04T13:54:19.039Z,98464.13
2023-01-04T13:56:51.482Z,98461.50
2023-01-04T13:59:21.721Z,98462.03
2023-01-04T14:01:50.123Z,98456.31
2023-01-04T14:04:28.441Z,98451.69
2023-01-04T14:06:59.900Z,98458.09
2023-01-04T14:09:42.086Z,98451.28
2023-01-04T14:12:19.903Z,98447.69
2023-01-04T14:15:02.666Z,98445.69
2023-01-04T14:17:48.932Z,98448.13
2023-01-04T14:20:15.379Z,98442.41
2023-01-04T14:22:44.713Z,98439.66
2023-01-04T14:25:49.311Z,98445.25
2023-01-04T14:28:29.317Z,98439.03
2023-01-04T14:30:58.775Z,98438.84
2023-01-04T14:33:32.913Z,98435.66
2023-01-04T14:36:32.544Z,98440.63
2023-01-04T14:39:08.183Z,98437.34
2023-01-04T14:41:52.042Z,98436.75
2023-01-04T14:44:28.116Z,98434.09
2023-01-04T14:46:58.839Z,98439.59
2023-01-04T14:49:28.374Z,98428.84
2023-01-04T14:52:08.979Z,98428.19
2023-01-04T14:54:39.010Z,98424.59
2023-01-04T14:57:05.717Z,98433.44
2023-01-04T14:59:32.234Z,98433.75
2023-01-04T15:01:58.945Z,98432.91
2023-01-04T15:04:25.668Z,98424.59
2023-01-04T15:06:58.268Z,98417.13
2023-01-04T15:09:25.146Z,98415.66
2023-01-04T15:11:51.759Z,98416.19
2023-01-04T15:14:18.753Z,98417.84
2023-01-04T15:16:45.659Z,98415.44
2023-01-04T15:19:12.429Z,98409.97
2023-01-04T15:21:41.481Z,98407.75
2023-01-04T15:24:09.724Z,98398.75
2023-01-04T15:26:36.439Z,98396.78
2023-01-04T15:29:06.510Z,98408.06
2023-01-04T15:31:38.955Z,98398.66
2023-01-04T15:34:06.524Z,98396.38
2023-01-04T15:36:33.175Z,98411.94
2023-01-04T15:38:59.646Z,98409.28
2023-01-04T15:41:44.710Z,98408.28
2023-01-04T15:44:11.836Z,98410.41
2023-01-04T15:46:38.645Z,98401.63
2023-01-04T15:49:05.412Z,98411.97
2023-01-04T15:51:32.048Z,98411.63
2023-01-04T15:53:58.645Z,98398.78
2023-01-04T15:56:26.552Z,98381.19
2023-01-04T15:58:55.016Z,98399.53
2023-01-04T16:01:22.436Z,98395.53
2023-01-04T16:03:53.377Z,98392.19
2023-01-04T16:06:20.550Z,98386.72
2023-01-04T16:08:48.769Z,98392.47
2023-01-04T16:11:20.147Z,98406.91
2023-01-04T16:13:49.473Z,98390.25
2023-01-04T16:16:18.433Z,98391.31
2023-01-04T16:18:48.307Z,98391.47
2023-01-04T16:21:20.129Z,98389.59
2023-01-04T16:24:03.920Z,98390.13
2023-01-04T16:26:32.066Z,98386.47
2023-01-04T16:29:00.555Z,98378.00
2023-01-04T16:31:32.024Z,98372.00
2023-01-04T16:33:58.565Z,98367.63
2023-01-04T16:36:25.419Z,98371.09
2023-01-04T16:38:51.868Z,98360.69
2023-01-04T16:41:21.243Z,98363.19
2023-01-04T16:43:55.094Z,98364.66
2023-01-04T16:46:25.556Z,98361.31
2023-01-04T16:48:56.995Z,98359.31
2023-01-04T16:51:26.457Z,98360.28
2023-01-04T16:53:54.918Z,98355.84
2023-01-04T16:56:23.886Z,98372.06
2023-01-04T16:58:51.537Z,98379.47
2023-01-04T17:01:27.970Z,98385.09
2023-01-04T17:03:57.623Z,98371.25
2023-01-04T17:06:29.120Z,98368.56
2023-01-04T17:08:57.559Z,98364.53
2023-01-04T17:12:19.175Z,98372.13
2023-01-04T17:14:33.520Z,98366.59
2023-01-04T17:17:00.832Z,98366.06
2023-01-04T17:19:27.415Z,98343.22
2023-01-04T17:21:53.942Z,98341.13
2023-01-04T17:24:20.562Z,98338.50
2023-01-04T17:26:47.474Z,98342.59
2023-01-04T17:29:14.927Z,98336.34
2023-01-04T17:31:44.978Z,98341.75
2023-01-04T17:34:22.623Z,98337.31
2023-01-04T17:36:50.134Z,98331.22
2023-01-04T17:39:16.636Z,98337.25
2023-01-04T17:41:43.417Z,98331.59
2023-01-04T17:44:10.462Z,98328.94
2023-01-04T17:46:38.117Z,98341.41
2023-01-04T17:49:30.525Z,98335.81
2023-01-04T17:51:55.755Z,98328.00
2023-01-04T17:54:23.018Z,98329.97
2023-01-04T17:56:49.604Z,98328.09
2023-01-04T17:59:16.209Z,98327.88
2023-01-04T18:01:42.825Z,98327.44
2023-01-04T18:04:09.443Z,98330.88
2023-01-04T18:06:37.401Z,98339.78
2023-01-04T18:09:07.020Z,98370.59
2023-01-04T18:11:35.156Z,98374.41
2023-01-04T18:14:05.924Z,98376.16
2023-01-04T18:16:56.204Z,98380.69
2023-01-04T18:19:28.810Z,98401.56
2023-01-04T18:21:58.800Z,98385.88
2023-01-04T18:24:41.690Z,98380.19
2023-01-04T18:27:27.495Z,98377.25
2023-01-04T18:29:56.221Z,98406.31
2023-01-04T18:32:24.940Z,98397.25
2023-01-04T18:34:51.526Z,98397.00
2023-01-04T18:37:18.536Z,98411.34
2023-01-04T18:39:45.855Z,98398.56
2023-01-04T18:42:12.351Z,98409.88
2023-01-04T18:44:45.576Z,98402.25
2023-01-04T18:47:14.515Z,98398.06
2023-01-04T18:49:41.045Z,98399.94
2023-01-04T18:52:07.593Z,98391.31
2023-01-04T18:54:34.138Z,98395.78
2023-01-04T18:57:01.624Z,98403.72
2023-01-04T18:59:31.905Z,98390.72
2023-01-04T19:02:01.593Z,98382.91
2023-01-04T19:04:34.211Z,98374.13
2023-01-04T19:07:02.037Z,98375.50
2023-01-04T19:09:28.852Z,98383.75
2023-01-04T19:11:55.396Z,98386.03
2023-01-04T19:14:22.132Z,98403.22
2023-01-04T19:16:48.643Z,98412.28
2023-01-04T19:19:15.195Z,98412.59
2023-01-04T19:21:41.755Z,98403.88
2023-01-04T19:24:08.556Z,98430.91
2023-01-04T19:26:35.250Z,98423.88
2023-01-04T19:29:03.387Z,98404.59
2023-01-04T19:31:30.193Z,98387.50
2023-01-04T19:33:56.775Z,98399.28
2023-01-04T19:36:23.493Z,98401.19
2023-01-04T19:38:50.068Z,98407.75
2023-01-04T19:41:29.137Z,98392.78
2023-01-04T19:44:02.500Z,98401.84
2023-01-04T19:46:29.126Z,98411.63
2023-01-04T19:48:56.014Z,98425.19
2023-01-04T19:51:23.741Z,98420.06
2023-01-04T19:53:51.591Z,98404.81
2023-01-04T19:56:18.087Z,98396.78
2023-01-04T19:58:44.624Z,98402.03
2023-01-04T20:01:16.933Z,98402.94
2023-01-04T20:03:43.767Z,98423.09
2023-01-04T20:06:12.099Z,98429.53
2023-01-04T20:08:39.839Z,98428.34
2023-01-04T20:11:07.807Z,98409.75
2023-01-04T20:13:34.867Z,98388.47
2023-01-04T20:16:06.498Z,98388.38
2023-01-04T20:18:34.753Z,98397.84
2023-01-04T20:21:01.452Z,98400.81
2023-01-04T20:23:28.033Z,98396.78
2023-01-04T20:25:54.842Z,98410.59
2023-01-04T20:28:24.355Z,98408.91
2023-01-04T20:31:03.455Z,98412.72
2023-01-04T20:33:31.063Z,98417.03
2023-01-04T20:35:57.671Z,98423.75
2023-01-04T20:38:24.194Z,98400.88
2023-01-04T20:40:50.682Z,98403.53
2023-01-04T20:43:37.118Z,98396.38
2023-01-04T20:46:10.661Z,98409.00
2023-01-04T20:48:37.263Z,98413.19
2023-01-04T20:51:20.220Z,98412.56
2023-01-04T20:53:47.113Z,98414.81
2023-01-04T20:56:23.541Z,98415.09
2023-01-04T20:58:51.404Z,98409.75
2023-01-04T21:01:20.532Z,98411.88
2023-01-04T21:03:48.076Z,98414.25
2023-01-04T21:06:17.513Z,98422.72
2023-01-04T21:08:45.840Z,98397.38
2023-01-04T21:11:14.130Z,98407.34
2023-01-04T21:13:41.224Z,98419.72
2023-01-04T21:16:08.623Z,98410.56
2023-01-04T21:18:35.234Z,98403.09
2023-01-04T21:21:18.660Z,98422.25
2023-01-04T21:23:45.992Z,98416.28
2023-01-04T21:26:16.691Z,98410.13
2023-01-04T21:28:45.085Z,98420.59
2023-01-04T21:31:21.892Z,98414.88
2023-01-04T21:33:48.410Z,98419.84
2023-01-04T21:36:25.236Z,98441.28
2023-01-04T21:38:54.836Z,98429.81
2023-01-04T21:41:24.632Z,98421.38
2023-01-04T21:43:58.006Z,98422.38
2023-01-04T21:46:26.098Z,98426.22
2023-01-04T21:48:58.125Z,98424.63
2023-01-04T21:51:25.347Z,98414.00
2023-01-04T21:53:52.037Z,98423.09
2023-01-04T21:56:22.301Z,98424.72
2023-01-04T21:58:49.115Z,98422.56
2023-01-04T22:01:21.489Z,98430.25
2023-01-04T22:03:48.235Z,98425.59
2023-01-04T22:06:15.235Z,98418.19
2023-01-04T22:08:46.464Z,98427.09
2023-01-04T22:11:14.744Z,98441.22
2023-01-04T22:13:41.609Z,98421.22
2023-01-04T22:16:14.953Z,98412.47
2023-01-04T22:18:44.760Z,98420.00
2023-01-04T22:21:14.194Z,98419.16
2023-01-04T22:23:40.894Z,98412.56
2023-01-04T22:26:07.591Z,98419.09
2023-01-04T22:28:36.987Z,98419.09
2023-01-04T22:31:09.843Z,98413.94
2023-01-04T22:33:37.552Z,98410.75
2023-01-04T22:36:12.719Z,98413.47
2023-01-04T22:38:43.855Z,98412.88
2023-01-04T22:41:15.924Z,98408.66
2023-01-04T22:43:43.679Z,98408.75
2023-01-04T22:46:18.181Z,98412.34
2023-01-04T22:48:45.797Z,98416.16
2023-01-04T22:51:16.564Z,98427.03
2023-01-04T22:53:44.122Z,98429.22
2023-01-04T22:56:19.522Z,98425.66
2023-01-04T22:58:53.360Z,98439.44
2023-01-04T23:01:27.537Z,98444.63
2023-01-04T23:03:55.511Z,98438.63
2023-01-04T23:06:23.635Z,98435.28
2023-01-04T23:09:00.391Z,98440.84
2023-01-04T23:11:30.309Z,98442.13
2023-01-04T23:13:57.904Z,98431.69
2023-01-04T23:16:31.955Z,98449.38
2023-01-04T23:18:59.707Z,98431.34
2023-01-04T23:21:26.226Z,98433.06
2023-01-04T23:23:52.758Z,98448.09
2023-01-04T23:26:23.277Z,98441.28
2023-01-04T23:28:50.384Z,98442.94
2023-01-04T23:31:22.805Z,98441.59
2023-01-04T23:33:56.354Z,98448.22
2023-01-04T23:36:27.771Z,98458.75
2023-01-04T23:38:58.184Z,98450.22
2023-01-04T23:41:44.492Z,98437.03
2023-01-04T23:44:25.156Z,98438.53
2023-01-04T23:47:01.235Z,98446.88
2023-01-04T23:49:31.555Z,98441.34
2023-01-04T23:51:58.957Z,98433.03
2023-01-04T23:54:26.050Z,98432.41
2023-01-04T23:56:53.103Z,98429.25
2023-01-04T23:59:20.967Z,98425.25
